createdAt,value
2018-04-27T00:01:14.730Z,78.90
2018-04-27T00:02:14.731Z,78.52
2018-04-27T00:04:07.663Z,78.08
2018-04-27T00:05:07.771Z,77.51
2018-04-27T00:07:00.603Z,77.22
2018-04-27T00:08:00.603Z,77.42
2018-04-27T00:09:54.086Z,77.42
2018-04-27T00:10:54.107Z,77.70
2018-04-27T00:12:47.057Z,77.61
2018-04-27T00:13:47.058Z,77.51
2018-04-27T00:15:40.509Z,77.32
2018-04-27T00:16:40.524Z,77.42
2018-04-27T00:18:33.479Z,77.61
2018-04-27T00:19:33.477Z,77.37
2018-04-27T00:21:26.434Z,77.37
2018-04-27T00:22:26.434Z,77.47
2018-04-27T00:24:19.362Z,78.23
2018-04-27T00:25:19.380Z,78.04
2018-04-27T00:27:12.333Z,77.76
2018-04-27T00:28:12.334Z,78.23
2018-04-27T00:30:05.269Z,78.61
2018-04-27T00:31:05.289Z,78.61
2018-04-27T00:32:58.242Z,78.71
2018-04-27T00:33:58.246Z,78.52
2018-04-27T00:35:51.179Z,78.52
2018-04-27T00:36:51.201Z,78.71
2018-04-27T00:38:44.151Z,79.09
2018-04-27T00:39:44.149Z,78.71
2018-04-27T00:41:37.107Z,78.52
2018-04-27T00:42:37.106Z,78.48
2018-04-27T00:44:30.040Z,79.05
2018-04-27T00:45:30.058Z,79.81
2018-04-27T00:47:23.014Z,79.62
2018-04-27T00:48:23.013Z,79.24
2018-04-27T00:50:15.947Z,79.43
2018-04-27T00:51:15.963Z,79.24
2018-04-27T00:53:08.920Z,80.00
2018-04-27T00:54:08.917Z,80.10
2018-04-27T00:56:01.853Z,80.19
2018-04-27T00:57:01.874Z,79.81
2018-04-27T00:58:54.829Z,80.29
2018-04-27T00:59:54.827Z,80.63
2018-04-27T01:01:47.784Z,81.01
2018-04-27T01:02:47.781Z,80.82
2018-04-27T01:04:40.716Z,80.91
2018-04-27T01:05:40.734Z,80.63
2018-04-27T01:07:33.689Z,81.58
2018-04-27T01:08:33.688Z,81.48
2018-04-27T01:10:26.622Z,82.24
2018-04-27T01:11:26.643Z,82.43
2018-04-27T01:13:19.598Z,82.05
2018-04-27T01:14:19.597Z,82.24
2018-04-27T01:16:12.533Z,82.24
2018-04-27T01:17:12.549Z,82.05
2018-04-27T01:19:05.504Z,82.15
2018-04-27T01:20:05.503Z,82.24
2018-04-27T01:21:58.471Z,82.91
2018-04-27T01:22:58.458Z,82.62
2018-04-27T01:24:51.393Z,82.62
2018-04-27T01:25:51.413Z,82.81
2018-04-27T01:27:44.364Z,82.62
2018-04-27T01:28:44.363Z,82.62
2018-04-27T01:30:37.299Z,83.19
2018-04-27T01:31:37.315Z,83.19
2018-04-27T01:33:30.274Z,82.68
2018-04-27T01:34:30.270Z,82.49
2018-04-27T01:36:23.205Z,82.77
2018-04-27T01:37:23.223Z,82.39
2018-04-27T01:39:16.178Z,82.68
2018-04-27T01:40:16.176Z,82.58
2018-04-27T01:42:09.135Z,82.49
2018-04-27T01:43:09.133Z,82.68
2018-04-27T01:45:02.069Z,82.39
2018-04-27T01:46:02.085Z,82.87
2018-04-27T01:47:55.050Z,82.68
2018-04-27T01:48:55.040Z,83.25
2018-04-27T01:50:47.977Z,82.96
2018-04-27T01:51:47.995Z,82.77
2018-04-27T01:53:40.951Z,83.53
2018-04-27T01:54:40.949Z,82.87
2018-04-27T01:56:33.883Z,83.91
2018-04-27T01:57:33.912Z,83.91
2018-04-27T01:59:26.861Z,84.01
2018-04-27T02:00:26.857Z,83.82
2018-04-27T02:02:19.830Z,84.29
2018-04-27T02:03:19.810Z,84.48
2018-04-27T02:05:12.742Z,84.01
2018-04-27T02:06:12.761Z,84.39
2018-04-27T02:08:05.716Z,84.86
2018-04-27T02:09:05.715Z,85.15
2018-04-27T02:10:58.657Z,84.95
2018-04-27T02:11:58.674Z,84.63
2018-04-27T02:13:51.624Z,85.20
2018-04-27T02:14:51.621Z,85.20
2018-04-27T02:16:44.561Z,85.01
2018-04-27T02:17:44.578Z,85.11
2018-04-27T02:19:37.532Z,85.30
2018-04-27T02:20:37.532Z,85.30
2018-04-27T02:22:30.498Z,85.49
2018-04-27T02:23:30.487Z,85.49
2018-04-27T02:25:23.421Z,85.68
2018-04-27T02:26:23.437Z,85.68
2018-04-27T02:28:16.393Z,85.68
2018-04-27T02:29:16.391Z,85.39
2018-04-27T02:31:09.331Z,85.77
2018-04-27T02:32:09.350Z,85.96
2018-04-27T02:34:02.300Z,85.86
2018-04-27T02:35:02.300Z,85.77
2018-04-27T02:36:55.236Z,86.43
2018-04-27T02:37:55.252Z,86.05
2018-04-27T02:39:48.214Z,86.34
2018-04-27T02:40:48.207Z,86.53
2018-04-27T02:42:41.169Z,86.72
2018-04-27T02:43:41.158Z,86.63
2018-04-27T02:45:34.115Z,87.01
2018-04-27T02:46:34.115Z,86.72
2018-04-27T02:48:27.069Z,86.91
2018-04-27T02:49:27.072Z,86.72
2018-04-27T02:51:20.006Z,87.01
2018-04-27T02:52:20.024Z,87.01
2018-04-27T02:54:12.981Z,86.91
2018-04-27T02:55:12.976Z,86.91
2018-04-27T02:57:05.912Z,86.72
2018-04-27T02:58:05.929Z,86.82
2018-04-27T02:59:58.882Z,86.63
2018-04-27T03:00:58.885Z,86.82
2018-04-27T03:02:51.820Z,86.24
2018-04-27T03:03:51.837Z,87.01
2018-04-27T03:05:44.791Z,86.43
2018-04-27T03:06:44.789Z,86.43
2018-04-27T03:08:37.747Z,86.91
2018-04-27T03:09:37.742Z,87.01
2018-04-27T03:11:30.682Z,86.63
2018-04-27T03:12:30.697Z,87.01
2018-04-27T03:14:23.651Z,87.57
2018-04-27T03:15:23.652Z,87.76
2018-04-27T03:17:16.593Z,88.20
2018-04-27T03:18:16.603Z,88.24
2018-04-27T03:20:09.562Z,87.91
2018-04-27T03:21:09.558Z,87.76
2018-04-27T03:23:02.495Z,88.15
2018-04-27T03:24:02.564Z,88.48
2018-04-27T03:25:55.467Z,88.01
2018-04-27T03:26:55.464Z,87.62
2018-04-27T03:28:48.422Z,88.43
2018-04-27T03:29:48.419Z,88.15
2018-04-27T03:31:41.358Z,87.76
2018-04-27T03:32:41.374Z,87.76
2018-04-27T03:34:34.332Z,88.24
2018-04-27T03:35:34.329Z,88.24
2018-04-27T03:37:27.265Z,88.05
2018-04-27T03:38:27.281Z,87.57
2018-04-27T03:40:20.238Z,87.95
2018-04-27T03:41:20.237Z,87.29
2018-04-27T03:43:13.171Z,87.57
2018-04-27T03:44:13.188Z,87.48
2018-04-27T03:46:06.663Z,86.91
2018-04-27T03:47:06.654Z,86.63
2018-04-27T03:48:59.611Z,86.91
2018-04-27T03:49:59.615Z,86.91
2018-04-27T03:51:52.560Z,86.34
2018-04-27T03:52:52.562Z,86.34
2018-04-27T03:54:46.030Z,86.34
2018-04-27T03:55:46.026Z,86.63
2018-04-27T03:57:46.441Z,86.24
2018-04-27T03:58:46.458Z,86.05
2018-04-27T04:00:39.411Z,86.05
2018-04-27T04:01:39.411Z,86.53
2018-04-27T04:03:32.369Z,86.43
2018-04-27T04:04:32.366Z,86.43
2018-04-27T04:06:25.814Z,86.43
2018-04-27T04:07:25.831Z,86.24
2018-04-27T04:09:18.784Z,86.19
2018-04-27T04:10:18.786Z,86.38
2018-04-27T04:12:11.721Z,85.53
2018-04-27T04:13:11.741Z,85.49
2018-04-27T04:15:04.694Z,85.58
2018-04-27T04:16:04.691Z,84.82
2018-04-27T04:17:57.626Z,85.20
2018-04-27T04:18:57.645Z,85.01
2018-04-27T04:20:50.603Z,85.11
2018-04-27T04:21:50.598Z,85.30
2018-04-27T04:23:43.556Z,85.58
2018-04-27T04:24:43.555Z,85.58
2018-04-27T04:26:36.487Z,85.30
2018-04-27T04:27:36.505Z,85.58
2018-04-27T04:29:29.463Z,85.77
2018-04-27T04:30:29.460Z,85.86
2018-04-27T04:32:22.414Z,86.24
2018-04-27T04:33:22.414Z,85.96
2018-04-27T04:35:15.368Z,85.96
2018-04-27T04:36:15.367Z,86.15
2018-04-27T04:38:08.305Z,86.34
2018-04-27T04:39:08.320Z,86.72
2018-04-27T04:41:01.280Z,86.82
2018-04-27T04:42:01.279Z,86.82
2018-04-27T04:43:54.231Z,86.15
2018-04-27T04:44:54.230Z,86.24
2018-04-27T04:46:47.166Z,86.34
2018-04-27T04:47:47.182Z,86.24
2018-04-27T04:49:40.141Z,86.19
2018-04-27T04:50:40.136Z,85.86
2018-04-27T04:52:33.166Z,85.96
2018-04-27T04:53:33.091Z,86.10
2018-04-27T04:55:26.048Z,85.91
2018-04-27T04:56:26.046Z,85.72
2018-04-27T04:58:18.984Z,86.19
2018-04-27T04:59:19.000Z,85.77
2018-04-27T05:01:11.956Z,85.68
2018-04-27T05:02:11.959Z,85.72
2018-04-27T05:04:04.911Z,86.24
2018-04-27T05:05:04.908Z,86.15
2018-04-27T05:06:58.355Z,86.34
2018-04-27T05:07:58.373Z,86.19
2018-04-27T05:09:51.333Z,85.81
2018-04-27T05:10:51.346Z,85.81
2018-04-27T05:12:44.266Z,84.95
2018-04-27T05:13:44.283Z,85.34
2018-04-27T05:15:37.235Z,85.34
2018-04-27T05:16:37.235Z,85.24
2018-04-27T05:18:30.174Z,84.95
2018-04-27T05:19:30.190Z,85.05
2018-04-27T05:21:23.108Z,84.95
2018-04-27T05:22:23.108Z,85.00
2018-04-27T05:24:16.584Z,85.10
2018-04-27T05:25:16.524Z,84.33
2018-04-27T05:27:09.422Z,84.05
2018-04-27T05:28:09.439Z,84.14
2018-04-27T05:30:02.363Z,83.04
2018-04-27T05:31:02.361Z,82.95
2018-04-27T05:32:55.263Z,82.09
2018-04-27T05:33:55.279Z,82.09
2018-04-27T05:35:48.198Z,82.00
2018-04-27T05:36:48.207Z,81.33
2018-04-27T05:38:41.105Z,80.95
2018-04-27T05:39:41.124Z,80.99
2018-04-27T05:41:34.044Z,80.66
2018-04-27T05:42:34.042Z,80.99
2018-04-27T05:44:27.457Z,80.19
2018-04-27T05:45:27.456Z,80.86
2018-04-27T05:47:20.360Z,80.13
2018-04-27T05:48:20.453Z,80.42
2018-04-27T05:50:13.293Z,80.38
2018-04-27T05:51:13.295Z,80.86
2018-04-27T05:53:06.198Z,81.71
2018-04-27T05:54:06.216Z,81.43
2018-04-27T05:55:59.140Z,81.71
2018-04-27T05:56:59.140Z,81.95
2018-04-27T05:58:52.049Z,81.52
2018-04-27T05:59:52.067Z,81.52
2018-04-27T06:01:44.984Z,82.57
2018-04-27T06:02:44.982Z,82.48
2018-04-27T06:04:37.937Z,82.61
2018-04-27T06:05:37.908Z,82.23
2018-04-27T06:07:30.810Z,79.60
2018-04-27T06:08:30.829Z,78.69
2018-04-27T06:10:23.754Z,76.44
2018-04-27T06:11:23.756Z,75.91
2018-04-27T06:13:16.662Z,72.86
2018-04-27T06:14:16.681Z,72.42
2018-04-27T06:16:10.159Z,70.64
2018-04-27T06:17:10.106Z,70.64
2018-04-27T06:19:03.014Z,69.62
2018-04-27T06:20:03.034Z,68.86
2018-04-27T06:21:55.965Z,67.36
2018-04-27T06:22:55.967Z,66.25
2018-04-27T06:24:48.907Z,65.33
2018-04-27T06:25:48.999Z,64.40
2018-04-27T06:27:41.823Z,61.72
2018-04-27T06:28:41.845Z,61.25
2018-04-27T06:30:34.776Z,60.32
2018-04-27T06:31:34.781Z,60.03
2018-04-27T06:33:27.696Z,60.35
2018-04-27T06:34:27.718Z,59.27
2018-04-27T06:36:21.146Z,59.48
2018-04-27T06:37:21.153Z,57.86
2018-04-27T06:39:14.069Z,57.86
2018-04-27T06:40:14.095Z,57.86
2018-04-27T06:42:07.036Z,56.45
2018-04-27T06:43:07.042Z,55.11
2018-04-27T06:44:59.993Z,56.09
2018-04-27T06:45:59.987Z,55.58
2018-04-27T06:47:52.908Z,55.21
2018-04-27T06:48:52.934Z,54.05
2018-04-27T06:50:45.879Z,54.91
2018-04-27T06:51:45.885Z,55.01
2018-04-27T06:53:38.802Z,54.91
2018-04-27T06:54:38.828Z,55.78
2018-04-27T06:56:31.765Z,56.83
2018-04-27T06:57:31.774Z,54.85
2018-04-27T06:59:24.762Z,53.99
2018-04-27T07:00:24.719Z,53.22
2018-04-27T07:02:17.667Z,54.21
2018-04-27T07:03:17.663Z,53.31
2018-04-27T07:05:10.643Z,52.83
2018-04-27T07:06:10.616Z,53.50
2018-04-27T07:08:03.537Z,54.66
2018-04-27T07:09:03.559Z,54.08
2018-04-27T07:10:56.504Z,53.31
2018-04-27T07:11:56.506Z,54.05
2018-04-27T07:13:49.423Z,56.16
2018-04-27T07:14:49.451Z,55.97
2018-04-27T07:16:42.382Z,57.70
2018-04-27T07:17:42.393Z,57.31
2018-04-27T07:19:35.304Z,57.70
2018-04-27T07:20:35.332Z,56.54
2018-04-27T07:22:28.264Z,55.94
2018-04-27T07:23:28.271Z,55.75
2018-04-27T07:25:21.201Z,56.42
2018-04-27T07:26:21.210Z,55.46
2018-04-27T07:28:14.148Z,55.18
2018-04-27T07:29:14.147Z,56.07
2018-04-27T07:31:07.079Z,55.75
2018-04-27T07:32:07.086Z,55.56
2018-04-27T07:33:59.999Z,55.27
2018-04-27T07:35:00.027Z,55.65
2018-04-27T07:36:52.955Z,57.38
2018-04-27T07:37:52.963Z,57.57
2018-04-27T07:39:45.969Z,56.71
2018-04-27T07:40:45.902Z,57.38
2018-04-27T07:42:39.326Z,56.04
2018-04-27T07:43:39.329Z,55.18
2018-04-27T07:45:32.261Z,54.38
2018-04-27T07:46:32.264Z,55.63
2018-04-27T07:48:26.691Z,55.82
2018-04-27T07:49:26.695Z,56.20
2018-04-27T07:51:19.630Z,56.20
2018-04-27T07:52:19.637Z,56.87
2018-04-27T07:54:13.040Z,55.73
2018-04-27T07:55:13.064Z,55.73
2018-04-27T07:57:06.501Z,56.97
2018-04-27T07:58:06.498Z,57.26
2018-04-27T07:59:59.416Z,56.01
2018-04-27T08:00:59.440Z,55.75
2018-04-27T08:02:52.862Z,55.08
2018-04-27T08:03:52.869Z,53.83
2018-04-27T08:05:45.820Z,52.87
2018-04-27T08:06:45.806Z,54.60
2018-04-27T08:08:38.719Z,55.36
2018-04-27T08:09:38.747Z,54.70
2018-04-27T08:11:31.676Z,54.50
2018-04-27T08:12:31.684Z,54.79
2018-04-27T08:14:26.088Z,52.52
2018-04-27T08:15:26.111Z,51.73
2018-04-27T08:17:19.045Z,51.37
2018-04-27T08:18:19.051Z,52.01
2018-04-27T08:20:11.965Z,50.10
2018-04-27T08:21:11.989Z,51.28
2018-04-27T08:23:04.930Z,50.00
2018-04-27T08:24:04.931Z,50.32
2018-04-27T08:25:57.874Z,50.29
2018-04-27T08:26:57.877Z,49.24
2018-04-27T08:28:50.791Z,50.96
2018-04-27T08:29:50.819Z,49.05
2018-04-27T08:31:43.752Z,50.99
2018-04-27T08:32:43.759Z,50.99
2018-04-27T08:34:36.667Z,49.07
2018-04-27T08:35:36.691Z,48.59
2018-04-27T08:37:29.622Z,49.26
2018-04-27T08:38:29.627Z,49.84
2018-04-27T08:40:22.543Z,50.41
2018-04-27T08:41:22.569Z,51.95
2018-04-27T08:43:15.500Z,49.19
2018-04-27T08:44:15.509Z,47.85
2018-04-27T08:46:08.940Z,48.04
2018-04-27T08:47:08.940Z,48.33
2018-04-27T08:49:01.855Z,49.31
2018-04-27T08:50:01.882Z,48.83
2018-04-27T08:51:54.818Z,47.49
2018-04-27T08:52:54.822Z,45.76
2018-04-27T08:54:47.737Z,44.03
2018-04-27T08:55:47.766Z,44.51
2018-04-27T08:57:40.696Z,46.53
2018-04-27T08:58:40.705Z,45.00
2018-04-27T09:00:33.679Z,45.86
2018-04-27T09:01:33.647Z,45.76
2018-04-27T09:03:26.590Z,45.78
2018-04-27T09:04:26.591Z,46.55
2018-04-27T09:06:19.628Z,45.68
2018-04-27T09:07:19.539Z,45.14
2018-04-27T09:09:12.457Z,41.75
2018-04-27T09:10:12.483Z,42.81
2018-04-27T09:12:05.912Z,43.88
2018-04-27T09:13:05.920Z,43.88
2018-04-27T09:14:58.838Z,43.60
2018-04-27T09:15:58.865Z,42.06
2018-04-27T09:17:51.799Z,42.93
2018-04-27T09:18:51.806Z,43.62
2018-04-27T09:20:44.725Z,42.56
2018-04-27T09:21:44.752Z,42.37
2018-04-27T09:23:38.183Z,41.70
2018-04-27T09:24:38.191Z,41.77
2018-04-27T09:26:31.650Z,42.76
2018-04-27T09:27:31.636Z,42.37
2018-04-27T09:29:24.555Z,41.79
2018-04-27T09:30:24.580Z,44.10
2018-04-27T09:32:17.589Z,40.93
2018-04-27T09:33:17.531Z,38.74
2018-04-27T09:35:10.940Z,40.66
2018-04-27T09:36:10.968Z,41.62
2018-04-27T09:38:03.912Z,39.22
2018-04-27T09:39:03.916Z,39.51
2018-04-27T09:40:56.908Z,39.51
2018-04-27T09:41:56.869Z,39.29
2018-04-27T09:43:49.807Z,39.87
2018-04-27T09:44:49.814Z,41.02
2018-04-27T09:46:42.760Z,39.89
2018-04-27T09:47:42.760Z,40.56
2018-04-27T09:49:35.699Z,40.08
2018-04-27T09:50:35.708Z,37.76
2018-04-27T09:52:28.643Z,39.29
2018-04-27T09:53:28.652Z,42.30
2018-04-27T09:55:21.576Z,43.07
2018-04-27T09:56:21.603Z,42.20
2018-04-27T09:58:14.557Z,40.85
2018-04-27T09:59:14.556Z,41.62
2018-04-27T10:01:08.979Z,41.24
2018-04-27T10:02:09.000Z,37.97
2018-04-27T10:04:02.436Z,38.34
2018-04-27T10:05:02.447Z,37.95
2018-04-27T10:06:55.378Z,38.22
2018-04-27T10:07:55.386Z,38.79
2018-04-27T10:09:48.305Z,42.76
2018-04-27T10:10:48.333Z,43.71
2018-04-27T10:12:41.273Z,41.02
2018-04-27T10:13:41.280Z,42.87
2018-04-27T10:15:34.202Z,42.30
2018-04-27T10:16:34.231Z,38.35
2018-04-27T10:18:27.171Z,38.24
2018-04-27T10:19:27.178Z,39.39
2018-04-27T10:21:20.106Z,41.24
2018-04-27T10:22:20.136Z,41.33
2018-04-27T10:24:13.080Z,40.66
2018-04-27T10:25:13.088Z,39.89
2018-04-27T10:27:06.523Z,40.37
2018-04-27T10:28:06.529Z,40.08
2018-04-27T10:29:59.450Z,42.22
2018-04-27T10:30:59.521Z,40.20
2018-04-27T10:32:52.416Z,38.66
2018-04-27T10:33:52.428Z,37.79
2018-04-27T10:35:45.345Z,40.39
2018-04-27T10:36:45.374Z,41.06
2018-04-27T10:38:38.311Z,39.64
2018-04-27T10:39:38.320Z,38.97
2018-04-27T10:41:31.248Z,38.97
2018-04-27T10:42:31.269Z,39.45
2018-04-27T10:44:24.215Z,36.45
2018-04-27T10:45:24.217Z,38.09
2018-04-27T10:47:17.180Z,37.60
2018-04-27T10:48:17.165Z,39.14
2018-04-27T10:50:10.156Z,40.01
2018-04-27T10:51:10.115Z,40.39
2018-04-27T10:53:03.054Z,41.08
2018-04-27T10:54:03.061Z,39.26
2018-04-27T10:55:55.987Z,38.01
2018-04-27T10:56:56.013Z,39.26
2018-04-27T10:58:48.955Z,39.06
2018-04-27T10:59:48.960Z,38.01
2018-04-27T11:01:41.885Z,38.20
2018-04-27T11:02:41.910Z,38.89
2018-04-27T11:04:34.858Z,36.29
2018-04-27T11:05:34.868Z,38.12
2018-04-27T11:07:27.796Z,36.77
2018-04-27T11:08:27.816Z,38.41
2018-04-27T11:10:20.763Z,36.89
2018-04-27T11:11:20.775Z,36.89
2018-04-27T11:13:13.714Z,35.91
2018-04-27T11:14:13.723Z,34.94
2018-04-27T11:16:06.653Z,34.35
2018-04-27T11:17:06.854Z,34.25
2018-04-27T11:18:59.628Z,37.14
2018-04-27T11:19:59.635Z,36.47
2018-04-27T11:21:52.562Z,37.52
2018-04-27T11:22:52.590Z,39.36
2018-04-27T11:24:45.529Z,35.97
2018-04-27T11:25:45.538Z,36.25
2018-04-27T11:27:39.454Z,39.89
2018-04-27T11:28:39.530Z,40.56
2018-04-27T11:30:32.428Z,39.91
2018-04-27T11:31:32.432Z,37.22
2018-04-27T11:33:25.370Z,36.64
2018-04-27T11:34:25.376Z,36.54
2018-04-27T11:36:18.305Z,36.83
2018-04-27T11:37:18.331Z,36.95
2018-04-27T11:39:11.273Z,36.85
2018-04-27T11:40:11.285Z,36.37
2018-04-27T11:42:04.302Z,37.14
2018-04-27T11:43:04.329Z,35.60
2018-04-27T11:44:57.375Z,34.74
2018-04-27T11:45:57.385Z,35.89
2018-04-27T11:47:50.492Z,39.36
2018-04-27T11:48:50.439Z,39.06
2018-04-27T11:50:43.899Z,36.85
2018-04-27T11:51:43.906Z,37.34
2018-04-27T11:53:36.954Z,38.37
2018-04-27T11:54:36.961Z,38.66
2018-04-27T11:56:29.990Z,37.97
2018-04-27T11:57:30.019Z,37.68
2018-04-27T11:59:23.066Z,37.51
2018-04-27T12:00:23.077Z,37.68
2018-04-27T12:02:16.101Z,37.49
2018-04-27T12:03:16.133Z,38.07
2018-04-27T12:05:09.180Z,38.16
2018-04-27T12:06:09.188Z,39.12
2018-04-27T12:08:02.115Z,38.04
2018-04-27T12:09:02.140Z,38.34
2018-04-27T12:10:55.087Z,38.72
2018-04-27T12:11:55.094Z,40.06
2018-04-27T12:13:48.143Z,41.33
2018-04-27T12:14:48.149Z,39.99
2018-04-27T12:16:41.179Z,38.64
2018-04-27T12:17:41.305Z,37.77
2018-04-27T12:19:34.663Z,37.51
2018-04-27T12:20:34.672Z,36.62
2018-04-27T12:22:27.598Z,38.93
2018-04-27T12:23:27.626Z,39.61
2018-04-27T12:25:20.671Z,39.22
2018-04-27T12:26:20.679Z,39.33
2018-04-27T12:28:13.615Z,36.33
2018-04-27T12:29:13.645Z,36.25
2018-04-27T12:31:06.747Z,39.33
2018-04-27T12:32:06.699Z,40.11
2018-04-27T12:34:00.150Z,38.09
2018-04-27T12:35:00.159Z,36.25
2018-04-27T12:36:53.083Z,35.47
2018-04-27T12:37:53.112Z,36.82
2018-04-27T12:39:46.059Z,36.54
2018-04-27T12:40:46.065Z,37.22
2018-04-27T12:42:38.991Z,37.91
2018-04-27T12:43:39.019Z,37.81
2018-04-27T12:45:31.964Z,37.62
2018-04-27T12:46:31.970Z,38.39
2018-04-27T12:48:24.900Z,33.97
2018-04-27T12:49:24.927Z,34.83
2018-04-27T12:51:17.919Z,34.74
2018-04-27T12:52:17.953Z,35.60
2018-04-27T12:54:10.827Z,33.39
2018-04-27T12:55:10.833Z,33.48
2018-04-27T12:57:03.759Z,35.79
2018-04-27T12:58:03.786Z,35.22
2018-04-27T12:59:56.732Z,36.37
2018-04-27T13:00:56.743Z,34.25
2018-04-27T13:02:49.772Z,33.97
2018-04-27T13:03:49.804Z,33.85
2018-04-27T13:05:42.737Z,33.75
2018-04-27T13:06:42.745Z,33.75
2018-04-27T13:08:36.191Z,33.95
2018-04-27T13:09:36.224Z,32.70
2018-04-27T13:11:29.166Z,32.79
2018-04-27T13:12:29.173Z,32.60
2018-04-27T13:14:22.222Z,31.72
2018-04-27T13:15:22.234Z,33.07
2018-04-27T13:17:15.670Z,35.00
2018-04-27T13:18:15.695Z,35.58
2018-04-27T13:20:08.634Z,34.74
2018-04-27T13:21:08.639Z,33.00
2018-04-27T13:23:01.575Z,33.58
2018-04-27T13:24:01.602Z,35.70
2018-04-27T13:25:56.085Z,34.16
2018-04-27T13:26:56.093Z,33.87
2018-04-27T13:28:49.546Z,35.22
2018-04-27T13:29:49.555Z,33.58
2018-04-27T13:31:42.508Z,33.67
2018-04-27T13:32:42.513Z,35.60
2018-04-27T13:34:38.536Z,34.16
2018-04-27T13:35:38.537Z,33.97
2018-04-27T13:37:31.984Z,32.81
2018-04-27T13:38:32.008Z,33.66
2018-04-27T13:40:25.460Z,33.54
2018-04-27T13:41:25.470Z,33.47
2018-04-27T13:43:19.930Z,33.37
2018-04-27T13:44:19.957Z,32.89
2018-04-27T13:46:12.902Z,33.66
2018-04-27T13:47:12.921Z,33.95
2018-04-27T13:49:05.857Z,32.98
2018-04-27T13:50:05.863Z,32.41
2018-04-27T13:51:58.867Z,35.20
2018-04-27T13:52:58.818Z,35.58
2018-04-27T13:54:51.767Z,33.97
2018-04-27T13:55:51.772Z,34.83
2018-04-27T13:57:45.216Z,33.97
2018-04-27T13:58:45.244Z,33.50
2018-04-27T14:00:38.289Z,33.21
2018-04-27T14:01:38.295Z,32.43
2018-04-27T14:03:31.223Z,32.33
2018-04-27T14:04:31.250Z,32.52
2018-04-27T14:06:24.297Z,34.64
2018-04-27T14:07:24.309Z,34.74
2018-04-27T14:09:18.790Z,33.20
2018-04-27T14:10:18.897Z,33.48
2018-04-27T14:12:11.825Z,32.62
2018-04-27T14:13:11.854Z,32.31
2018-04-27T14:15:04.800Z,32.51
2018-04-27T14:16:04.807Z,33.18
2018-04-27T14:17:57.735Z,32.71
2018-04-27T14:18:57.763Z,34.16
2018-04-27T14:20:50.812Z,32.04
2018-04-27T14:21:50.819Z,32.71
2018-04-27T14:23:44.253Z,33.98
2018-04-27T14:24:44.280Z,32.06
2018-04-27T14:26:37.332Z,34.27
2018-04-27T14:27:37.340Z,35.24
2018-04-27T14:29:30.284Z,32.46
2018-04-27T14:30:30.296Z,31.21
2018-04-27T14:32:23.321Z,30.80
2018-04-27T14:33:23.351Z,31.00
2018-04-27T14:35:16.394Z,32.44
2018-04-27T14:36:16.404Z,33.12
2018-04-27T14:38:09.435Z,32.64
2018-04-27T14:39:09.460Z,32.44
2018-04-27T14:41:02.513Z,32.81
2018-04-27T14:42:02.517Z,33.79
2018-04-27T14:43:55.545Z,32.62
2018-04-27T14:44:55.573Z,32.14
2018-04-27T14:46:48.521Z,32.90
2018-04-27T14:47:48.531Z,33.58
2018-04-27T14:49:41.583Z,31.85
2018-04-27T14:50:41.583Z,31.18
2018-04-27T14:52:34.586Z,31.27
2018-04-27T14:53:34.539Z,32.04
2018-04-27T14:55:27.587Z,34.06
2018-04-27T14:56:27.595Z,34.17
2018-04-27T14:58:20.522Z,34.08
2018-04-27T14:59:20.551Z,33.69
2018-04-27T15:01:13.595Z,33.02
2018-04-27T15:02:13.604Z,32.36
2018-04-27T15:04:06.534Z,33.03
2018-04-27T15:05:06.560Z,32.26
2018-04-27T15:06:59.603Z,31.01
2018-04-27T15:07:59.611Z,31.78
2018-04-27T15:09:53.074Z,31.09
2018-04-27T15:10:53.085Z,30.52
2018-04-27T15:12:46.111Z,32.82
2018-04-27T15:13:46.135Z,32.34
2018-04-27T15:15:39.085Z,32.73
2018-04-27T15:16:39.091Z,31.98
2018-04-27T15:18:32.127Z,30.53
2018-04-27T15:19:32.156Z,31.59
2018-04-27T15:21:25.193Z,31.09
2018-04-27T15:22:25.205Z,30.90
2018-04-27T15:24:18.229Z,31.75
2018-04-27T15:25:18.257Z,32.33
2018-04-27T15:27:11.202Z,32.52
2018-04-27T15:28:11.211Z,32.71
2018-04-27T15:30:04.156Z,32.81
2018-04-27T15:31:04.166Z,32.71
2018-04-27T15:32:57.094Z,31.85
2018-04-27T15:33:57.120Z,33.00
2018-04-27T15:35:50.590Z,32.52
2018-04-27T15:36:50.589Z,32.52
2018-04-27T15:38:43.614Z,33.00
2018-04-27T15:39:43.641Z,33.97
2018-04-27T15:41:36.591Z,33.48
2018-04-27T15:42:36.596Z,32.33
2018-04-27T15:44:29.522Z,31.83
2018-04-27T15:45:29.548Z,32.51
2018-04-27T15:47:22.496Z,32.31
2018-04-27T15:48:22.503Z,32.60
2018-04-27T15:50:15.449Z,32.98
2018-04-27T15:51:15.457Z,33.48
2018-04-27T15:53:08.384Z,33.20
2018-04-27T15:54:08.412Z,32.23
2018-04-27T15:56:01.376Z,30.98
2018-04-27T15:57:01.366Z,31.65
2018-04-27T15:58:54.846Z,32.43
2018-04-27T15:59:54.832Z,32.52
2018-04-27T16:01:47.779Z,31.77
2018-04-27T16:02:47.785Z,31.87
2018-04-27T16:04:41.225Z,32.64
2018-04-27T16:05:41.330Z,33.40
2018-04-27T16:07:34.195Z,32.64
2018-04-27T16:08:34.202Z,32.73
2018-04-27T16:10:27.176Z,32.33
2018-04-27T16:11:27.234Z,32.71
2018-04-27T16:13:20.188Z,32.62
2018-04-27T16:14:20.214Z,32.51
2018-04-27T16:16:13.159Z,32.70
2018-04-27T16:17:13.167Z,33.16
2018-04-27T16:19:06.197Z,33.84
2018-04-27T16:20:06.223Z,33.64
2018-04-27T16:21:59.170Z,33.66
2018-04-27T16:22:59.179Z,34.43
2018-04-27T16:24:52.100Z,34.89
2018-04-27T16:25:52.128Z,33.75
2018-04-27T16:27:45.077Z,33.56
2018-04-27T16:28:45.090Z,33.95
2018-04-27T16:30:38.034Z,32.98
2018-04-27T16:31:38.035Z,32.51
2018-04-27T16:33:31.476Z,33.10
2018-04-27T16:34:31.504Z,32.81
2018-04-27T16:36:24.451Z,32.62
2018-04-27T16:37:24.459Z,32.90
2018-04-27T16:39:17.385Z,32.62
2018-04-27T16:40:17.408Z,32.23
2018-04-27T16:42:10.354Z,32.52
2018-04-27T16:43:10.365Z,32.71
2018-04-27T16:45:03.294Z,32.62
2018-04-27T16:46:03.320Z,32.71
2018-04-27T16:47:56.264Z,33.87
2018-04-27T16:48:56.273Z,33.77
2018-04-27T16:50:49.729Z,34.06
2018-04-27T16:51:49.739Z,34.37
2018-04-27T16:53:42.667Z,32.71
2018-04-27T16:54:42.699Z,33.48
2018-04-27T16:56:35.638Z,32.64
2018-04-27T16:57:35.649Z,33.50
2018-04-27T16:59:28.573Z,34.56
2018-04-27T17:00:28.598Z,33.89
2018-04-27T17:02:21.537Z,32.82
2018-04-27T17:03:21.544Z,33.12
2018-04-27T17:05:14.481Z,33.21
2018-04-27T17:06:14.508Z,33.59
2018-04-27T17:08:07.557Z,34.06
2018-04-27T17:09:07.566Z,34.16
2018-04-27T17:11:01.043Z,34.06
2018-04-27T17:12:01.032Z,34.54
2018-04-27T17:13:53.955Z,34.45
2018-04-27T17:14:53.983Z,34.35
2018-04-27T17:16:46.933Z,34.23
2018-04-27T17:17:46.941Z,35.10
2018-04-27T17:19:41.351Z,35.57
2018-04-27T17:20:41.373Z,36.15
2018-04-27T17:22:34.405Z,35.85
2018-04-27T17:23:34.383Z,36.15
2018-04-27T17:25:27.310Z,36.24
2018-04-27T17:26:27.348Z,36.72
2018-04-27T17:28:20.282Z,37.68
2018-04-27T17:29:20.287Z,37.30
2018-04-27T17:31:13.239Z,37.20
2018-04-27T17:32:13.246Z,37.30
2018-04-27T17:34:06.681Z,36.62
2018-04-27T17:35:06.723Z,36.72
2018-04-27T17:36:59.678Z,36.72
2018-04-27T17:37:59.659Z,36.91
2018-04-27T17:39:52.606Z,37.68
2018-04-27T17:40:52.613Z,37.68
2018-04-27T17:42:45.561Z,38.16
2018-04-27T17:43:45.569Z,38.26
2018-04-27T17:45:38.563Z,38.26
2018-04-27T17:46:38.521Z,38.74
2018-04-27T17:48:31.470Z,38.35
2018-04-27T17:49:31.475Z,39.12
2018-04-27T17:51:24.446Z,38.54
2018-04-27T17:52:24.431Z,39.20
2018-04-27T17:54:17.358Z,38.91
2018-04-27T17:55:17.383Z,39.29
2018-04-27T17:57:10.328Z,38.91
2018-04-27T17:58:10.335Z,39.20
2018-04-27T18:00:03.250Z,39.29
2018-04-27T18:01:03.278Z,39.01
2018-04-27T18:02:56.701Z,39.87
2018-04-27T18:03:56.708Z,39.78
2018-04-27T18:05:49.625Z,39.56
2018-04-27T18:06:49.651Z,39.56
2018-04-27T18:08:42.579Z,40.23
2018-04-27T18:09:42.582Z,40.05
2018-04-27T18:11:35.595Z,39.95
2018-04-27T18:12:35.526Z,39.85
2018-04-27T18:14:28.466Z,39.85
2018-04-27T18:15:28.464Z,40.05
2018-04-27T18:17:21.391Z,41.10
2018-04-27T18:18:21.404Z,41.00
2018-04-27T18:20:14.316Z,41.39
2018-04-27T18:21:14.339Z,41.96
2018-04-27T18:23:07.325Z,41.77
2018-04-27T18:24:07.332Z,42.52
2018-04-27T18:26:00.259Z,42.90
2018-04-27T18:27:00.284Z,42.90
2018-04-27T18:28:53.231Z,43.29
2018-04-27T18:29:53.242Z,43.65
2018-04-27T18:31:46.203Z,43.94
2018-04-27T18:32:46.255Z,44.80
2018-04-27T18:34:39.119Z,44.80